Time;durP1;ratioP1;P1;durP2;ratioP2;P2;SDS_P1;SDS_P2;PMS_P1;PMS_P2;Temp;Humidity;BMP_temperature;BMP_pressure;BME280_temperature;BME280_humidity;BME280_pressure;Samples;Min_cycle;Max_cycle;Signal;HPM_P1;HPM_P2
2023/10/21 00:01:58;;;;;;;25.40;4.50;;;14.80;99.30;;;;;;4989880;28;20042;-79
2023/10/21 00:04:24;;;;;;;34.63;4.20;;;14.90;99.40;;;;;;5005846;28;20050;-80
2023/10/21 00:06:49;;;;;;;31.98;3.85;;;14.90;99.30;;;;;;5012035;28;20036;-79
2023/10/21 00:09:15;;;;;;;31.35;3.70;;;15.00;99.20;;;;;;4995796;28;20072;-80
2023/10/21 00:11:40;;;;;;;27.48;3.28;;;15.00;99.10;;;;;;5011682;28;20107;-81
2023/10/21 00:14:06;;;;;;;28.88;4.18;;;15.10;98.90;;;;;;4997133;28;20070;-79
2023/10/21 00:16:32;;;;;;;23.48;2.65;;;15.10;98.70;;;;;;5008350;28;20168;-80
2023/10/21 00:18:58;;;;;;;24.70;2.90;;;15.10;98.50;;;;;;4998918;28;21264;-80
2023/10/21 00:21:24;;;;;;;20.23;2.58;;;15.10;98.70;;;;;;5010582;28;20033;-80
2023/10/21 00:23:49;;;;;;;15.25;2.13;;;15.10;98.60;;;;;;4997687;28;20029;-80
2023/10/21 00:26:16;;;;;;;12.63;2.03;;;15.10;98.00;;;;;;5013053;28;20033;-80
2023/10/21 00:28:42;;;;;;;17.20;2.28;;;15.10;97.80;;;;;;4991455;28;20478;-80
2023/10/21 00:31:07;;;;;;;16.67;1.95;;;15.20;97.60;;;;;;5008385;28;20091;-80
2023/10/21 00:33:33;;;;;;;11.95;1.70;;;15.30;97.80;;;;;;4994966;28;20125;-79
2023/10/21 00:35:59;;;;;;;15.25;1.90;;;15.30;98.00;;;;;;5001931;28;20126;-79
2023/10/21 00:38:25;;;;;;;18.42;1.70;;;15.30;98.00;;;;;;4990042;28;20053;-79
2023/10/21 00:40:55;;;;;;;20.83;2.63;;;15.20;97.90;;;;;;5007369;28;20737;-79
2023/10/21 00:43:39;;;;;;;17.63;1.92;;;15.20;98.30;;;;;;4986298;28;20408;-79
2023/10/21 00:46:06;;;;;;;13.20;1.67;;;15.20;97.70;;;;;;5011587;28;20128;-79
2023/10/21 00:48:32;;;;;;;12.52;1.55;;;15.20;97.40;;;;;;4998112;28;20056;-79
2023/10/21 00:50:58;;;;;;;14.85;1.88;;;15.20;97.40;;;;;;5038757;28;20030;-79
2023/10/21 00:53:24;;;;;;;14.02;1.70;;;15.20;97.30;;;;;;5042644;28;20036;-79
2023/10/21 00:55:51;;;;;;;12.90;1.40;;;15.10;97.40;;;;;;5026295;28;20033;-79
2023/10/21 00:58:19;;;;;;;12.98;1.30;;;15.00;97.50;;;;;;5040621;28;20022;-80
2023/10/21 01:00:44;;;;;;;13.32;1.73;;;14.90;97.00;;;;;;5027470;28;20037;-80
2023/10/21 01:03:11;;;;;;;16.23;1.48;;;14.90;97.10;;;;;;5034044;28;20035;-79
2023/10/21 01:05:36;;;;;;;8.65;1.40;;;14.90;97.20;;;;;;5002051;28;20172;-80
2023/10/21 01:08:02;;;;;;;15.75;2.10;;;14.90;97.00;;;;;;5012034;28;20040;-80
2023/10/21 01:10:28;;;;;;;17.98;2.42;;;14.90;97.30;;;;;;4997502;28;20614;-80
2023/10/21 01:12:54;;;;;;;15.98;1.63;;;15.00;97.40;;;;;;5014132;28;20102;-78
2023/10/21 01:15:19;;;;;;;10.50;1.35;;;15.10;96.90;;;;;;4996252;28;20099;-80
2023/10/21 01:17:50;;;;;;;10.20;1.38;;;15.00;96.50;;;;;;5011381;28;20107;-80
2023/10/21 01:20:17;;;;;;;18.95;2.15;;;15.00;96.50;;;;;;5001590;28;20128;-80
2023/10/21 01:22:43;;;;;;;17.98;1.73;;;15.00;96.90;;;;;;5012156;28;20192;-80
2023/10/21 01:25:09;;;;;;;14.10;2.00;;;14.90;96.90;;;;;;5003263;28;20052;-80
2023/10/21 01:27:34;;;;;;;15.52;1.65;;;14.90;96.60;;;;;;5015356;28;20029;-80
2023/10/21 01:30:00;;;;;;;16.38;2.20;;;14.90;96.90;;;;;;4998345;28;21116;-79
2023/10/21 01:32:26;;;;;;;17.25;1.90;;;14.90;97.30;;;;;;5012876;28;20504;-80
2023/10/21 01:34:51;;;;;;;12.23;1.83;;;14.90;96.50;;;;;;5006608;28;20041;-80
2023/10/21 01:37:17;;;;;;;15.00;1.50;;;14.90;96.70;;;;;;5004223;28;20044;-80
2023/10/21 01:39:44;;;;;;;15.70;1.55;;;14.90;97.00;;;;;;5011921;28;20037;-80
2023/10/21 01:42:09;;;;;;;9.00;1.05;;;14.90;96.90;;;;;;4994671;28;20164;-81
2023/10/21 01:44:35;;;;;;;14.65;2.08;;;14.80;97.10;;;;;;5011645;28;20038;-80
2023/10/21 01:47:01;;;;;;;15.00;1.65;;;14.80;97.50;;;;;;5004194;28;20034;-80
2023/10/21 01:49:26;;;;;;;13.95;1.67;;;14.80;97.60;;;;;;5010337;28;20029;-80
2023/10/21 01:51:52;;;;;;;11.10;1.52;;;14.80;97.00;;;;;;4998350;28;20029;-80
2023/10/21 01:54:17;;;;;;;12.77;1.30;;;14.70;96.40;;;;;;5018818;28;20176;-80
2023/10/21 01:56:45;;;;;;;12.90;1.55;;;14.70;96.50;;;;;;4998175;28;20075;-80
2023/10/21 01:59:11;;;;;;;10.75;1.13;;;14.70;96.70;;;;;;5017713;28;20203;-80
2023/10/21 02:01:36;;;;;;;5.95;0.88;;;14.70;97.20;;;;;;4996776;28;20050;-80
2023/10/21 02:04:05;;;;;;;6.80;1.00;;;14.70;96.80;;;;;;5001261;28;20032;-79
2023/10/21 02:06:30;;;;;;;17.40;1.13;;;14.50;96.70;;;;;;4999639;28;20030;-80
2023/10/21 02:08:56;;;;;;;14.40;1.83;;;14.40;97.60;;;;;;5005286;28;20627;-79
2023/10/21 02:11:24;;;;;;;14.38;1.48;;;14.50;98.00;;;;;;4992520;28;20788;-80
2023/10/21 02:13:50;;;;;;;8.10;2.00;;;14.60;98.00;;;;;;5007407;28;20029;-80
2023/10/21 02:16:16;;;;;;;7.80;1.10;;;14.70;97.60;;;;;;4997379;28;20056;-80
2023/10/21 02:18:42;;;;;;;17.35;1.90;;;14.80;97.20;;;;;;5012528;28;20434;-81
2023/10/21 02:21:08;;;;;;;14.80;2.38;;;14.60;97.60;;;;;;5011137;28;20199;-80
2023/10/21 02:23:34;;;;;;;14.07;1.40;;;14.60;97.40;;;;;;4998249;28;20563;-81
2023/10/21 02:26:04;;;;;;;10.20;1.30;;;14.60;97.50;;;;;;5015292;28;20037;-79
2023/10/21 02:28:31;;;;;;;17.92;1.88;;;14.60;98.00;;;;;;5000354;28;20025;-79
2023/10/21 02:30:57;;;;;;;26.40;3.05;;;14.60;98.30;;;;;;5009761;28;20036;-78
2023/10/21 02:33:23;;;;;;;20.33;2.13;;;14.70;98.40;;;;;;5003998;28;20026;-79
2023/10/21 02:35:53;;;;;;;16.30;2.20;;;14.80;98.20;;;;;;5009666;28;20037;-79
2023/10/21 02:38:19;;;;;;;29.52;3.70;;;14.80;98.30;;;;;;4994145;28;20175;-79
2023/10/21 02:40:46;;;;;;;20.45;2.78;;;14.70;98.30;;;;;;5006805;28;20456;-80
2023/10/21 02:43:12;;;;;;;17.42;2.00;;;14.70;98.30;;;;;;4992345;28;20063;-79
2023/10/21 02:45:38;;;;;;;16.00;1.92;;;14.80;98.20;;;;;;5011073;28;20508;-79
2023/10/21 02:48:04;;;;;;;18.33;1.95;;;14.60;98.80;;;;;;5001332;28;20041;-78
2023/10/21 02:50:29;;;;;;;17.58;2.78;;;14.50;98.90;;;;;;5010605;28;20037;-78
2023/10/21 02:52:55;;;;;;;7.75;1.65;;;14.50;98.40;;;;;;4999144;28;20037;-77
2023/10/21 02:55:21;;;;;;;11.23;1.75;;;14.50;98.90;;;;;;5015383;28;20041;-79
2023/10/21 02:57:46;;;;;;;23.92;2.75;;;14.40;99.10;;;;;;4995609;28;20041;-79
2023/10/21 03:00:15;;;;;;;11.00;1.80;;;14.60;99.10;;;;;;5010528;28;20367;-79
2023/10/21 03:02:42;;;;;;;26.80;2.25;;;14.60;98.90;;;;;;5009039;28;20036;-79
2023/10/21 03:05:08;;;;;;;16.42;2.30;;;14.70;99.10;;;;;;5003966;28;20164;-79
2023/10/21 03:07:34;;;;;;;20.08;3.05;;;14.70;99.20;;;;;;5015486;28;20021;-80
2023/10/21 03:10:02;;;;;;;14.07;2.65;;;14.80;99.40;;;;;;4995744;28;20045;-80
2023/10/21 03:12:27;;;;;;;12.15;1.75;;;14.70;99.30;;;;;;5006159;28;20184;-79
2023/10/21 03:14:54;;;;;;;13.85;1.42;;;14.60;98.30;;;;;;4998273;28;20037;-80
2023/10/21 03:17:20;;;;;;;18.85;3.08;;;14.60;98.30;;;;;;5003889;28;20548;-80
2023/10/21 03:19:46;;;;;;;36.20;3.05;;;14.50;98.90;;;;;;4999206;28;20057;-80
2023/10/21 03:22:11;;;;;;;20.60;2.30;;;14.60;99.50;;;;;;5013929;28;20486;-80
2023/10/21 03:24:37;;;;;;;22.17;2.15;;;14.70;99.60;;;;;;4997018;28;20080;-79
2023/10/21 03:27:03;;;;;;;18.65;4.47;;;14.70;99.60;;;;;;5015586;28;20477;-79
2023/10/21 03:29:28;;;;;;;27.05;2.17;;;14.60;99.20;;;;;;4998481;28;20430;-79
2023/10/21 03:31:54;;;;;;;34.00;4.03;;;14.50;99.40;;;;;;5007989;28;20052;-76
2023/10/21 03:34:20;;;;;;;46.55;3.50;;;14.30;99.90;;;;;;4999637;28;20033;-75
2023/10/21 03:36:45;;;;;;;39.58;3.33;;;14.20;99.90;;;;;;5012200;28;20421;-75
2023/10/21 03:39:12;;;;;;;28.45;3.72;;;14.20;99.90;;;;;;5004202;28;20398;-75
2023/10/21 03:41:37;;;;;;;36.85;4.07;;;14.20;99.90;;;;;;5011090;28;20030;-77
2023/10/21 03:44:03;;;;;;;21.33;2.20;;;14.20;99.90;;;;;;5005448;28;20080;-76
2023/10/21 03:46:31;;;;;;;36.28;3.70;;;14.20;99.90;;;;;;5000029;28;20080;-75
2023/10/21 03:48:56;;;;;;;29.02;3.10;;;14.10;99.90;;;;;;5014257;28;20083;-76
2023/10/21 03:51:22;;;;;;;39.13;4.60;;;14.10;99.90;;;;;;4996152;28;20037;-75
2023/10/21 03:53:48;;;;;;;28.67;2.67;;;14.10;99.90;;;;;;5012671;28;20029;-76
2023/10/21 03:56:14;;;;;;;31.02;3.10;;;14.10;99.90;;;;;;4995326;28;20044;-75
2023/10/21 03:58:41;;;;;;;29.15;2.95;;;14.10;99.90;;;;;;5012843;28;20026;-74
2023/10/21 04:01:06;;;;;;;18.67;2.33;;;14.10;99.90;;;;;;5000650;28;20520;-74
2023/10/21 04:03:33;;;;;;;23.20;2.45;;;14.00;99.90;;;;;;5009327;28;20176;-74
2023/10/21 04:05:59;;;;;;;23.45;2.70;;;14.00;99.90;;;;;;4999235;28;20034;-75
2023/10/21 04:08:26;;;;;;;23.38;2.83;;;14.00;99.90;;;;;;5011464;28;20034;-75
2023/10/21 04:10:53;;;;;;;33.25;3.50;;;14.00;99.90;;;;;;4995368;28;21434;-74
2023/10/21 04:13:19;;;;;;;46.65;3.35;;;14.00;99.90;;;;;;5010093;28;20033;-74
2023/10/21 04:15:45;;;;;;;46.88;4.70;;;13.90;99.90;;;;;;4994887;28;20066;-75
2023/10/21 04:18:10;;;;;;;32.85;3.15;;;13.80;99.90;;;;;;5007552;28;20176;-73
2023/10/21 04:20:36;;;;;;;44.80;5.15;;;13.70;99.90;;;;;;4999270;28;20173;-73
2023/10/21 04:23:02;;;;;;;43.75;4.18;;;13.60;99.90;;;;;;5010175;28;20040;-73
2023/10/21 04:25:29;;;;;;;40.92;4.28;;;13.60;99.90;;;;;;5006372;28;20413;-74
2023/10/21 04:27:56;;;;;;;38.67;3.60;;;13.50;99.90;;;;;;5004661;28;20043;-73
2023/10/21 04:30:23;;;;;;;26.60;3.28;;;13.60;99.90;;;;;;5007012;28;20045;-75
2023/10/21 04:32:48;;;;;;;21.02;1.98;;;13.50;99.90;;;;;;5001123;28;20034;-74
2023/10/21 04:35:14;;;;;;;20.88;2.28;;;13.60;99.90;;;;;;5019182;28;20280;-75
2023/10/21 04:37:40;;;;;;;18.27;2.30;;;13.60;99.90;;;;;;5001229;28;20037;-74
2023/10/21 04:40:07;;;;;;;21.27;2.55;;;13.80;99.90;;;;;;5019083;28;20513;-76
2023/10/21 04:42:32;;;;;;;19.60;2.00;;;13.80;99.90;;;;;;5004322;28;20090;-76
2023/10/21 04:44:58;;;;;;;24.42;2.30;;;13.90;99.90;;;;;;5007766;28;20228;-75
2023/10/21 04:47:23;;;;;;;21.40;2.47;;;13.90;99.90;;;;;;5000417;28;20057;-76
2023/10/21 04:49:49;;;;;;;24.65;2.40;;;13.90;99.90;;;;;;5014225;28;20041;-76
2023/10/21 04:52:15;;;;;;;21.13;2.88;;;14.00;99.90;;;;;;5000432;28;20888;-75
2023/10/21 04:54:42;;;;;;;24.25;2.45;;;14.00;99.90;;;;;;5014496;28;20405;-74
2023/10/21 04:57:09;;;;;;;13.90;1.98;;;14.00;99.90;;;;;;4999018;28;20075;-75
2023/10/21 04:59:35;;;;;;;16.20;1.75;;;14.10;99.90;;;;;;5017321;28;20038;-74
2023/10/21 05:02:01;;;;;;;35.20;3.75;;;14.00;99.90;;;;;;5000037;28;20419;-74
2023/10/21 05:04:27;;;;;;;36.90;3.33;;;14.00;99.90;;;;;;5009023;28;20049;-76
2023/10/21 05:06:53;;;;;;;24.98;2.45;;;13.90;99.90;;;;;;5005324;28;20026;-75
2023/10/21 05:09:19;;;;;;;29.27;3.25;;;13.80;99.90;;;;;;5007820;28;20035;-76
2023/10/21 05:11:45;;;;;;;15.05;2.35;;;13.90;99.90;;;;;;5008584;28;20030;-74
2023/10/21 05:14:11;;;;;;;30.75;3.25;;;13.80;99.90;;;;;;5004630;28;20072;-74
2023/10/21 05:16:36;;;;;;;24.40;3.13;;;13.70;99.90;;;;;;5009134;28;20072;-75
2023/10/21 05:19:03;;;;;;;22.17;2.53;;;13.70;99.90;;;;;;5002672;28;20034;-75
2023/10/21 05:21:30;;;;;;;32.72;3.38;;;13.70;99.90;;;;;;5014931;28;20065;-73
2023/10/21 05:23:56;;;;;;;16.85;1.50;;;13.80;99.90;;;;;;4999675;28;20465;-77
2023/10/21 05:26:22;;;;;;;30.27;3.20;;;13.70;99.90;;;;;;5014336;28;20033;-74
2023/10/21 05:28:48;;;;;;;27.95;2.70;;;13.70;99.90;;;;;;5002210;28;20394;-76
2023/10/21 05:31:14;;;;;;;21.75;2.45;;;13.70;99.90;;;;;;5011492;28;20029;-75
2023/10/21 05:33:40;;;;;;;18.70;2.90;;;13.80;99.90;;;;;;5001278;28;20490;-73
2023/10/21 05:36:06;;;;;;;24.27;2.65;;;13.80;99.90;;;;;;5012823;28;20506;-73
2023/10/21 05:38:32;;;;;;;18.27;2.00;;;13.80;99.90;;;;;;4996937;28;20125;-74
2023/10/21 05:40:58;;;;;;;21.95;2.30;;;13.80;99.90;;;;;;5011454;28;20752;-75
2023/10/21 05:43:24;;;;;;;23.00;2.38;;;13.70;99.90;;;;;;4998807;28;20119;-74
2023/10/21 05:45:49;;;;;;;15.52;1.88;;;13.70;99.90;;;;;;5009088;28;20529;-75
2023/10/21 05:48:15;;;;;;;21.48;2.95;;;13.70;99.90;;;;;;5006911;28;20032;-75
2023/10/21 05:50:41;;;;;;;27.90;2.67;;;13.70;99.90;;;;;;5005145;28;20025;-75
2023/10/21 05:53:07;;;;;;;19.85;2.13;;;13.80;99.90;;;;;;5018160;28;20034;-75
2023/10/21 05:55:33;;;;;;;30.50;2.65;;;13.80;99.90;;;;;;5001286;28;20041;-75
2023/10/21 05:57:58;;;;;;;25.48;4.20;;;13.90;99.90;;;;;;4994638;28;20490;-76
2023/10/21 06:00:25;;;;;;;26.27;3.78;;;13.90;99.90;;;;;;4998814;28;20410;-75
2023/10/21 06:02:51;;;;;;;23.73;2.90;;;13.90;99.90;;;;;;5007940;28;20108;-75
2023/10/21 06:05:16;;;;;;;24.35;3.15;;;14.00;99.90;;;;;;4980548;28;20494;-75
2023/10/21 06:07:42;;;;;;;30.23;3.95;;;14.00;99.90;;;;;;5012914;28;20452;-75
2023/10/21 06:10:09;;;;;;;28.65;3.05;;;14.00;99.90;;;;;;4993806;28;20061;-75
2023/10/21 06:12:35;;;;;;;17.80;2.95;;;13.90;99.90;;;;;;5007299;28;20033;-76
2023/10/21 06:15:02;;;;;;;21.83;2.60;;;13.90;99.90;;;;;;4999213;28;20043;-75
2023/10/21 06:17:27;;;;;;;24.13;2.90;;;13.90;99.90;;;;;;5009373;28;20103;-75
2023/10/21 06:19:53;;;;;;;13.50;2.40;;;13.80;99.90;;;;;;4996756;28;20049;-76
2023/10/21 06:22:19;;;;;;;22.63;2.58;;;13.80;99.90;;;;;;5012467;28;20033;-75
2023/10/21 06:24:46;;;;;;;27.88;2.83;;;13.80;99.90;;;;;;4995736;28;20390;-76
2023/10/21 06:27:12;;;;;;;23.08;3.08;;;13.90;99.80;;;;;;5013490;28;20489;-76
2023/10/21 06:29:38;;;;;;;29.52;3.60;;;13.90;99.60;;;;;;5003361;28;20116;-75
2023/10/21 06:32:06;;;;;;;20.52;2.17;;;14.00;99.90;;;;;;5008801;28;20033;-76
2023/10/21 06:34:33;;;;;;;20.20;2.57;;;13.90;99.70;;;;;;5012195;28;20092;-75
2023/10/21 06:36:59;;;;;;;28.90;2.78;;;13.80;99.90;;;;;;4993816;28;20043;-75
2023/10/21 06:39:25;;;;;;;23.27;2.35;;;13.70;99.90;;;;;;5008078;28;20034;-75
2023/10/21 06:41:51;;;;;;;16.95;2.08;;;13.70;99.90;;;;;;4996482;28;20080;-75
2023/10/21 06:44:16;;;;;;;23.52;1.98;;;13.70;99.90;;;;;;5006019;28;20029;-75
2023/10/21 06:46:43;;;;;;;32.58;3.50;;;13.70;99.90;;;;;;5000159;28;20482;-76
2023/10/21 06:49:09;;;;;;;17.25;2.10;;;13.70;99.90;;;;;;5015702;28;20041;-76
2023/10/21 06:51:36;;;;;;;14.70;2.10;;;13.70;99.90;;;;;;4992782;28;20037;-75
2023/10/21 06:54:02;;;;;;;30.75;3.05;;;13.70;99.90;;;;;;5010417;28;20054;-74
2023/10/21 06:56:28;;;;;;;28.10;3.00;;;13.70;99.90;;;;;;5001125;28;20025;-76
2023/10/21 06:58:54;;;;;;;29.95;3.45;;;13.60;99.90;;;;;;5008656;28;20700;-76
2023/10/21 07:01:19;;;;;;;36.00;4.65;;;13.60;99.90;;;;;;5000364;28;20443;-75
2023/10/21 07:03:45;;;;;;;33.60;3.90;;;13.60;99.90;;;;;;5012645;28;20040;-76
2023/10/21 07:06:11;;;;;;;25.55;3.15;;;13.60;99.90;;;;;;4995360;28;20089;-76
2023/10/21 07:09:02;;;;;;;34.13;4.65;;;13.60;99.90;;;;;;5011927;28;21175;-75
2023/10/21 07:11:27;;;;;;;46.33;4.93;;;13.60;99.90;;;;;;4991836;28;20030;-75
2023/10/21 07:13:53;;;;;;;35.15;4.22;;;13.60;99.90;;;;;;5009441;28;20103;-75
2023/10/21 07:16:19;;;;;;;44.47;4.20;;;13.60;99.90;;;;;;4999135;28;20476;-75
2023/10/21 07:18:45;;;;;;;40.60;4.03;;;13.60;99.90;;;;;;5009063;28;20033;-74
2023/10/21 07:21:10;;;;;;;42.95;3.55;;;13.60;99.90;;;;;;5010603;28;20037;-75
2023/10/21 07:23:36;;;;;;;31.17;4.00;;;13.60;99.90;;;;;;4996274;28;20139;-75
2023/10/21 07:26:02;;;;;;;24.65;2.65;;;13.70;99.90;;;;;;5011162;28;20036;-76
2023/10/21 07:28:28;;;;;;;36.97;4.13;;;13.60;99.90;;;;;;5000831;28;21881;-75
2023/10/21 07:30:54;;;;;;;23.48;2.65;;;13.70;99.90;;;;;;5007778;28;20096;-75
2023/10/21 07:33:20;;;;;;;34.00;3.92;;;13.70;99.90;;;;;;5001764;28;20466;-75
2023/10/21 07:35:51;;;;;;;28.50;3.15;;;13.70;99.90;;;;;;5009995;28;20393;-75
2023/10/21 07:38:18;;;;;;;33.90;4.65;;;13.80;99.90;;;;;;4993306;28;20072;-76
2023/10/21 07:40:43;;;;;;;28.15;2.95;;;13.80;99.90;;;;;;5023047;28;20109;-75
2023/10/21 07:43:09;;;;;;;29.17;3.97;;;13.80;99.90;;;;;;5021203;28;20057;-75
2023/10/21 07:45:35;;;;;;;33.95;3.80;;;13.90;99.90;;;;;;5030578;28;20049;-77
2023/10/21 07:48:02;;;;;;;40.90;3.90;;;13.90;99.90;;;;;;5023273;28;20343;-77
2023/10/21 07:50:28;;;;;;;30.50;3.88;;;14.00;99.90;;;;;;5033521;28;21039;-77
2023/10/21 07:52:54;;;;;;;30.83;4.18;;;14.00;99.90;;;;;;5021975;28;20151;-76
2023/10/21 07:55:19;;;;;;;30.63;3.72;;;14.00;99.90;;;;;;5037292;28;20037;-76
2023/10/21 07:57:45;;;;;;;28.00;3.00;;;14.10;99.90;;;;;;5005948;28;20576;-76
2023/10/21 08:00:13;;;;;;;45.67;4.75;;;14.10;99.90;;;;;;5008162;28;20039;-76
2023/10/21 08:02:40;;;;;;;43.53;3.58;;;14.00;99.90;;;;;;5007795;28;20038;-76
2023/10/21 08:05:07;;;;;;;30.98;3.08;;;14.00;99.90;;;;;;5004774;28;20485;-76
2023/10/21 08:07:33;;;;;;;28.50;3.08;;;14.10;99.90;;;;;;5010780;28;20696;-76
2023/10/21 08:09:59;;;;;;;45.97;6.18;;;14.10;99.90;;;;;;4997552;28;20468;-76
2023/10/21 08:12:25;;;;;;;24.33;2.20;;;14.20;99.90;;;;;;5008025;28;20051;-76
2023/10/21 08:14:51;;;;;;;33.60;3.35;;;14.30;99.90;;;;;;4998012;28;20038;-76
2023/10/21 08:17:17;;;;;;;32.42;3.47;;;14.40;99.90;;;;;;5009580;28;20044;-76
2023/10/21 08:19:43;;;;;;;26.38;3.53;;;14.40;99.90;;;;;;5002230;28;20175;-77
2023/10/21 08:22:10;;;;;;;29.67;3.42;;;14.50;99.90;;;;;;5016181;28;20063;-76
2023/10/21 08:24:36;;;;;;;23.42;2.90;;;14.50;99.90;;;;;;4996742;28;20084;-76
2023/10/21 08:27:04;;;;;;;33.35;3.00;;;14.60;99.90;;;;;;5014847;28;20029;-77
2023/10/21 08:29:30;;;;;;;34.70;4.82;;;14.60;99.90;;;;;;5003730;28;20397;-78
2023/10/21 08:31:56;;;;;;;31.83;3.78;;;14.70;99.90;;;;;;5007254;28;21177;-77
2023/10/21 08:34:24;;;;;;;31.20;3.70;;;14.80;99.90;;;;;;5003712;28;20359;-77
2023/10/21 08:36:55;;;;;;;24.92;3.15;;;14.80;99.90;;;;;;5014001;28;20037;-76
2023/10/21 08:39:20;;;;;;;26.88;3.25;;;15.00;99.60;;;;;;4991546;28;20033;-77
2023/10/21 08:41:49;;;;;;;30.88;3.35;;;15.00;99.40;;;;;;5011145;28;20040;-76
2023/10/21 08:44:16;;;;;;;26.80;3.70;;;15.00;99.30;;;;;;4993328;28;21200;-77
2023/10/21 08:46:46;;;;;;;29.50;3.35;;;15.00;99.60;;;;;;5008933;28;20040;-77
2023/10/21 08:49:14;;;;;;;24.20;3.28;;;15.10;99.40;;;;;;5009803;28;20176;-78
2023/10/21 08:51:39;;;;;;;22.17;2.63;;;15.10;99.40;;;;;;5004892;28;20022;-78
2023/10/21 08:54:06;;;;;;;20.92;2.40;;;15.20;99.30;;;;;;5013655;28;20119;-77
2023/10/21 08:56:33;;;;;;;28.83;3.20;;;15.20;99.00;;;;;;4998082;28;20044;-77
2023/10/21 08:59:02;;;;;;;29.65;3.20;;;15.30;98.90;;;;;;5006776;28;20061;-78
2023/10/21 09:01:28;;;;;;;27.60;3.15;;;15.40;99.30;;;;;;4999524;28;20128;-77
2023/10/21 09:03:54;;;;;;;37.35;3.50;;;15.50;99.00;;;;;;5010894;28;20041;-78
2023/10/21 09:06:23;;;;;;;22.48;2.30;;;15.50;98.90;;;;;;4998705;28;20462;-78
2023/10/21 09:08:53;;;;;;;31.35;4.28;;;15.60;98.10;;;;;;5012426;28;21105;-78
2023/10/21 09:11:23;;;;;;;22.65;3.20;;;15.70;98.00;;;;;;4995668;28;20033;-77
2023/10/21 09:13:56;;;;;;;12.25;1.50;;;15.80;97.50;;;;;;5009554;28;20037;-78
2023/10/21 09:16:23;;;;;;;14.30;1.42;;;15.60;96.10;;;;;;4998686;28;20092;-78
2023/10/21 09:19:11;;;;;;;23.13;2.17;;;15.50;96.70;;;;;;5009588;28;21133;-78
2023/10/21 09:21:39;;;;;;;21.38;2.20;;;15.50;97.00;;;;;;5000358;28;20034;-78
2023/10/21 09:24:09;;;;;;;15.75;1.95;;;15.50;97.10;;;;;;5010915;28;20140;-78
2023/10/21 09:26:40;;;;;;;19.20;2.33;;;15.50;97.00;;;;;;4998767;28;20455;-78
2023/10/21 09:29:10;;;;;;;26.05;3.17;;;15.50;97.00;;;;;;5014435;28;20091;-79
2023/10/21 09:31:46;;;;;;;15.32;2.03;;;15.50;97.10;;;;;;4997607;28;20041;-78
2023/10/21 09:34:24;;;;;;;17.67;1.73;;;15.50;97.20;;;;;;5010451;28;20030;-77
2023/10/21 09:37:06;;;;;;;13.18;1.67;;;15.30;97.40;;;;;;5002948;28;20036;-78
2023/10/21 09:39:37;;;;;;;21.33;3.08;;;15.00;97.70;;;;;;5008906;28;20494;-78
2023/10/21 09:42:04;;;;;;;23.83;2.20;;;14.70;98.00;;;;;;4998332;28;20040;-75
2023/10/21 09:44:33;;;;;;;13.52;1.38;;;14.50;98.70;;;;;;5005578;28;20124;-76
2023/10/21 09:47:00;;;;;;;24.23;2.38;;;14.60;98.80;;;;;;4996726;28;20367;-76
2023/10/21 09:49:28;;;;;;;27.80;3.13;;;14.70;99.60;;;;;;5010398;28;20037;-76
2023/10/21 09:52:05;;;;;;;23.50;3.03;;;14.90;99.20;;;;;;4997489;28;20068;-76
2023/10/21 09:54:43;;;;;;;25.75;2.65;;;15.10;99.10;;;;;;5016704;28;20017;-76
2023/10/21 09:57:12;;;;;;;26.15;2.60;;;15.10;99.10;;;;;;5000086;28;20434;-75
2023/10/21 09:59:44;;;;;;;30.55;2.88;;;15.10;99.10;;;;;;5010010;28;20179;-75
2023/10/21 10:02:13;;;;;;;26.38;3.10;;;15.00;99.20;;;;;;5001697;28;20128;-74
2023/10/21 10:04:42;;;;;;;20.77;3.10;;;15.00;98.90;;;;;;5015674;28;20026;-75
2023/10/21 10:07:24;;;;;;;24.73;2.25;;;14.90;98.50;;;;;;5003638;28;20566;-74
2023/10/21 10:09:52;;;;;;;22.23;1.98;;;14.70;98.40;;;;;;5008356;28;20041;-74
2023/10/21 10:12:24;;;;;;;15.05;1.88;;;14.50;97.80;;;;;;4994489;28;20572;-75
2023/10/21 10:14:53;;;;;;;25.58;2.60;;;14.50;98.20;;;;;;5012953;28;20041;-74
2023/10/21 10:17:48;;;;;;;21.17;2.38;;;14.60;98.30;;;;;;5000204;28;20049;-73
2023/10/21 10:20:26;;;;;;;21.63;2.00;;;14.70;97.90;;;;;;5007949;28;20041;-74
2023/10/21 10:23:07;;;;;;;9.93;1.38;;;14.80;97.20;;;;;;5001752;28;20038;-74
2023/10/21 10:25:36;;;;;;;12.00;1.23;;;14.90;97.40;;;;;;5008461;28;20037;-74
2023/10/21 10:28:07;;;;;;;16.17;2.08;;;15.20;97.80;;;;;;4999713;28;20112;-75
2023/10/21 10:30:44;;;;;;;19.63;1.20;;;15.40;97.50;;;;;;5012096;28;20045;-76
2023/10/21 10:33:26;;;;;;;11.35;1.30;;;15.40;96.30;;;;;;4998818;28;20103;-77
2023/10/21 10:35:54;;;;;;;21.30;1.92;;;15.40;96.00;;;;;;5018237;28;20123;-78
2023/10/21 10:38:25;;;;;;;10.48;1.60;;;15.30;95.70;;;;;;4995727;28;20068;-77
2023/10/21 10:41:00;;;;;;;16.90;1.67;;;15.00;96.90;;;;;;5013716;28;20037;-76
2023/10/21 10:43:38;;;;;;;19.27;1.77;;;14.70;97.50;;;;;;4997197;28;20041;-75
2023/10/21 10:46:10;;;;;;;24.90;2.75;;;14.50;98.10;;;;;;5005444;28;20151;-75
2023/10/21 10:48:37;;;;;;;18.70;1.80;;;14.50;98.50;;;;;;4998085;28;20456;-74
2023/10/21 10:51:21;;;;;;;22.35;3.17;;;14.60;98.70;;;;;;5009662;28;20548;-73
2023/10/21 10:53:59;;;;;;;17.88;2.28;;;14.60;98.80;;;;;;4993552;28;20033;-74
2023/10/21 10:56:42;;;;;;;22.70;2.25;;;14.70;99.50;;;;;;5014193;28;20030;-75
2023/10/21 10:59:17;;;;;;;9.13;1.00;;;14.80;99.40;;;;;;4996531;28;20037;-75
2023/10/21 11:01:46;;;;;;;13.52;1.55;;;14.80;96.90;;;;;;5016440;28;20437;-75
2023/10/21 11:04:16;;;;;;;14.43;2.20;;;14.90;97.10;;;;;;5002398;28;20633;-75
2023/10/21 11:06:45;;;;;;;14.05;1.70;;;15.00;96.60;;;;;;5009280;28;20099;-75
2023/10/21 11:09:23;;;;;;;20.00;2.25;;;15.20;96.70;;;;;;4996701;28;20143;-76
2023/10/21 11:11:53;;;;;;;16.00;1.87;;;15.50;97.10;;;;;;5007417;28;20575;-76
2023/10/21 11:15:12;;;;;;;23.77;3.45;;;15.60;97.00;;;;;;4999129;28;21075;-76
2023/10/21 11:25:51;;;;;;;16.10;2.15;;;16.10;94.70;;;;;;5023643;28;20068;-77
2023/10/21 11:28:18;;;;;;;17.88;2.13;;;15.70;94.70;;;;;;4987705;28;20953;-75
2023/10/21 11:30:45;;;;;;;24.58;2.33;;;15.20;96.50;;;;;;4991193;28;20026;-74
2023/10/21 11:33:11;;;;;;;23.20;2.40;;;15.00;97.40;;;;;;5012141;28;20668;-74
2023/10/21 11:35:39;;;;;;;14.63;2.03;;;15.10;98.00;;;;;;4988864;28;20649;-74
2023/10/21 11:38:05;;;;;;;14.40;1.80;;;15.20;96.90;;;;;;5007762;28;20072;-75
2023/10/21 11:40:33;;;;;;;22.40;1.73;;;15.30;97.00;;;;;;5002664;28;20202;-75
2023/10/21 11:43:00;;;;;;;15.35;2.03;;;15.30;97.20;;;;;;5009161;28;20057;-75
2023/10/21 11:45:29;;;;;;;21.45;2.10;;;15.30;97.30;;;;;;5005055;28;20038;-75
2023/10/21 11:47:56;;;;;;;10.40;1.73;;;15.20;96.20;;;;;;5022018;28;20075;-76
2023/10/21 11:50:24;;;;;;;16.20;2.05;;;15.20;96.70;;;;;;4998950;28;21180;-75
2023/10/21 11:52:51;;;;;;;33.17;3.07;;;15.20;97.40;;;;;;5015834;28;20049;-74
2023/10/21 11:55:38;;;;;;;24.50;2.80;;;15.30;97.60;;;;;;5014985;28;20042;-75
2023/10/21 12:06:14;;;;;;;10.35;1.92;;;15.90;95.60;;;;;;5008840;28;20132;-75
2023/10/21 12:07:48;;;;;;;13.05;1.95;;;16.10;94.90;;;;;;5002942;28;20447;-76
2023/10/21 12:11:48;;;;;;;16.35;2.30;;;16.00;95.00;;;;;;5001139;28;20408;-76
2023/10/21 12:12:49;;;;;;;15.85;2.45;;;16.00;94.50;;;;;;4985749;28;20088;-76
2023/10/21 12:17:00;;;;;;;18.75;2.50;;;16.00;94.60;;;;;;5008590;28;20103;-76
2023/10/21 12:31:41;;;;;;;15.07;1.88;;;16.30;95.40;;;;;;5000251;28;20049;-77
2023/10/21 12:31:48;;;;;;;26.35;3.05;;;16.70;94.20;;;;;;5006441;28;20070;-78
2023/10/21 12:37:30;;;;;;;10.43;1.58;;;17.30;91.90;;;;;;5011829;28;20144;-78
2023/10/21 12:39:20;;;;;;;10.52;1.50;;;17.40;91.90;;;;;;5010643;28;20041;-78
2023/10/21 12:41:54;;;;;;;13.55;2.08;;;17.40;91.10;;;;;;5012996;28;20038;-78
2023/10/21 12:44:24;;;;;;;20.95;2.22;;;17.20;92.10;;;;;;5006355;28;20048;-78
2023/10/21 12:46:55;;;;;;;18.40;2.08;;;17.00;92.60;;;;;;5016356;28;20172;-78
2023/10/21 12:49:24;;;;;;;13.25;2.08;;;16.80;93.00;;;;;;5007805;28;20034;-78
2023/10/21 12:51:51;;;;;;;11.32;1.77;;;16.60;92.90;;;;;;5018904;28;20314;-78
2023/10/21 12:54:17;;;;;;;10.32;1.33;;;16.60;92.50;;;;;;5010856;28;20074;-78
2023/10/21 12:56:43;;;;;;;14.70;2.35;;;16.70;92.30;;;;;;5022951;28;20452;-78
2023/10/21 12:59:08;;;;;;;15.05;2.00;;;17.00;91.70;;;;;;5001876;28;20099;-78
2023/10/21 13:01:35;;;;;;;14.18;2.15;;;17.10;91.80;;;;;;5023985;28;20041;-78
2023/10/21 13:04:01;;;;;;;12.77;2.13;;;17.30;91.00;;;;;;5006627;28;20970;-78
2023/10/21 13:06:27;;;;;;;14.90;2.03;;;17.50;91.00;;;;;;5023376;28;20115;-78
2023/10/21 13:08:53;;;;;;;13.25;1.75;;;17.50;91.00;;;;;;5016661;28;20431;-78
2023/10/21 13:11:19;;;;;;;17.95;2.25;;;17.70;91.10;;;;;;5015970;28;20033;-79